createdAt,value
2023-03-26T00:01:24.863Z,90.08
2023-03-26T00:03:57.946Z,90.18
2023-03-26T00:06:31.408Z,90.23
2023-03-26T00:08:58.513Z,91.16
2023-03-26T00:11:27.774Z,91.46
2023-03-26T00:13:59.364Z,91.43
2023-03-26T00:16:28.942Z,91.90
2023-03-26T00:18:55.984Z,91.57
2023-03-26T00:21:29.475Z,92.50
2023-03-26T00:24:15.373Z,94.38
2023-03-26T00:26:44.174Z,94.33
2023-03-26T00:29:13.822Z,94.00
2023-03-26T00:31:41.093Z,95.00
2023-03-26T00:34:08.729Z,95.53
2023-03-26T00:36:36.032Z,95.78
2023-03-26T00:39:05.687Z,96.60
2023-03-26T00:41:34.223Z,96.65
2023-03-26T00:44:00.828Z,96.44
2023-03-26T00:46:29.802Z,97.00
2023-03-26T00:48:59.953Z,96.92
2023-03-26T00:51:29.322Z,96.43
2023-03-26T00:53:57.082Z,96.39
2023-03-26T00:56:25.630Z,97.04
2023-03-26T00:58:52.143Z,97.77
2023-03-26T01:01:29.551Z,98.10
2023-03-26T01:04:08.793Z,97.81
2023-03-26T01:06:41.250Z,98.97
2023-03-26T01:09:17.190Z,99.11
2023-03-26T01:11:46.467Z,99.62
2023-03-26T01:14:26.886Z,100.00
2023-03-26T01:16:56.228Z,100.00
2023-03-26T01:19:56.942Z,100.00
2023-03-26T01:22:28.457Z,100.00
2023-03-26T01:24:56.702Z,100.00
2023-03-26T01:27:53.908Z,100.00
2023-03-26T01:30:35.004Z,100.00
2023-03-26T01:33:16.485Z,100.00
2023-03-26T01:36:26.029Z,100.00
2023-03-26T01:39:18.926Z,100.00
2023-03-26T01:41:49.383Z,100.00
2023-03-26T01:44:15.785Z,100.00
2023-03-26T01:46:43.771Z,100.00
2023-03-26T01:49:13.517Z,100.00
2023-03-26T01:51:42.278Z,100.00
2023-03-26T01:54:21.240Z,100.00
2023-03-26T01:57:20.426Z,100.00
2023-03-26T02:00:41.236Z,100.00
2023-03-26T02:03:27.883Z,100.00
2023-03-26T02:06:03.017Z,100.00
2023-03-26T02:08:37.614Z,100.00
2023-03-26T02:11:14.411Z,100.00
2023-03-26T02:13:43.691Z,100.00
2023-03-26T02:16:16.827Z,100.00
2023-03-26T02:18:45.068Z,100.00
2023-03-26T02:21:20.606Z,100.00
2023-03-26T02:23:50.779Z,100.00
2023-03-26T02:26:20.235Z,100.00
2023-03-26T02:28:46.959Z,100.00
2023-03-26T02:31:13.824Z,100.00
2023-03-26T02:33:40.611Z,100.00
2023-03-26T02:36:12.628Z,100.00
2023-03-26T02:38:39.877Z,100.00
2023-03-26T02:41:06.379Z,100.00
2023-03-26T02:43:32.982Z,100.00
2023-03-26T02:45:59.812Z,100.00
2023-03-26T02:48:27.033Z,100.00
2023-03-26T02:51:02.245Z,100.00
2023-03-26T02:53:31.815Z,100.00
2023-03-26T02:55:59.359Z,100.00
2023-03-26T02:58:28.431Z,100.00
2023-03-26T03:00:55.267Z,100.00
2023-03-26T03:03:24.360Z,100.00
2023-03-26T03:05:55.084Z,100.00
2023-03-26T03:08:24.202Z,100.00
2023-03-26T03:11:02.558Z,100.00
2023-03-26T03:13:29.378Z,100.00
2023-03-26T03:15:56.434Z,100.00
2023-03-26T03:18:25.326Z,100.00
2023-03-26T03:20:52.172Z,100.00
2023-03-26T03:23:21.417Z,100.00
2023-03-26T03:25:50.651Z,100.00
2023-03-26T03:28:18.261Z,100.00
2023-03-26T03:30:45.868Z,100.00
2023-03-26T03:33:15.409Z,100.00
2023-03-26T03:35:42.698Z,100.00
2023-03-26T03:38:10.740Z,100.00
2023-03-26T03:40:37.454Z,100.00
2023-03-26T03:43:03.945Z,100.00
2023-03-26T03:45:30.425Z,100.00
2023-03-26T03:48:02.525Z,100.00
2023-03-26T03:50:29.095Z,100.00
2023-03-26T03:52:55.984Z,100.00
2023-03-26T03:55:33.863Z,100.00
2023-03-26T03:58:00.405Z,100.00
2023-03-26T04:00:27.124Z,100.00
2023-03-26T04:03:00.647Z,100.00
2023-03-26T04:05:27.187Z,100.00
2023-03-26T04:07:53.746Z,100.00
2023-03-26T04:10:22.124Z,100.00
2023-03-26T04:12:50.974Z,100.00
2023-03-26T04:15:17.472Z,100.00
2023-03-26T04:17:45.101Z,100.00
2023-03-26T04:20:15.715Z,100.00
2023-03-26T04:22:49.708Z,100.00
2023-03-26T04:25:16.404Z,100.00
2023-03-26T04:27:44.101Z,100.00
2023-03-26T04:30:15.698Z,100.00
2023-03-26T04:32:43.091Z,100.00
2023-03-26T04:35:14.312Z,100.00
2023-03-26T04:37:42.866Z,100.00
2023-03-26T04:40:15.230Z,100.00
2023-03-26T04:42:41.839Z,100.00
2023-03-26T04:45:13.473Z,100.00
2023-03-26T04:47:40.250Z,100.00
2023-03-26T04:50:08.581Z,100.00
2023-03-26T04:52:35.513Z,100.00
2023-03-26T04:55:02.256Z,100.00
2023-03-26T04:57:35.432Z,100.00
2023-03-26T05:00:16.746Z,100.00
2023-03-26T05:02:43.750Z,100.00
2023-03-26T05:05:12.550Z,100.00
2023-03-26T05:07:39.282Z,100.00
2023-03-26T05:10:06.755Z,100.00
2023-03-26T05:12:33.280Z,100.00
2023-03-26T05:15:01.594Z,100.00
2023-03-26T05:17:31.024Z,100.00
2023-03-26T05:19:57.804Z,100.00
2023-03-26T05:22:28.779Z,100.00
2023-03-26T05:24:56.328Z,100.00
2023-03-26T05:27:22.858Z,100.00
2023-03-26T05:29:51.218Z,100.00
2023-03-26T05:32:17.714Z,100.00
2023-03-26T05:34:46.705Z,100.00
2023-03-26T05:37:15.544Z,100.00
2023-03-26T05:39:43.850Z,100.00
2023-03-26T05:42:10.342Z,100.00
2023-03-26T05:44:37.130Z,100.00
2023-03-26T05:47:05.939Z,100.00
2023-03-26T05:49:32.451Z,100.00
2023-03-26T05:51:59.084Z,100.00
2023-03-26T05:54:25.629Z,100.00
2023-03-26T05:56:52.807Z,100.00
2023-03-26T05:59:29.599Z,100.00
2023-03-26T06:01:59.699Z,100.00
2023-03-26T06:04:28.677Z,100.00
2023-03-26T06:06:55.347Z,100.00
2023-03-26T06:09:21.851Z,100.00
2023-03-26T06:11:48.391Z,100.00
2023-03-26T06:14:21.276Z,100.00
2023-03-26T06:16:48.021Z,100.00
2023-03-26T06:19:14.579Z,100.00
2023-03-26T06:21:41.303Z,100.00
2023-03-26T06:24:07.870Z,100.00
2023-03-26T06:26:34.362Z,100.00
2023-03-26T06:29:05.448Z,100.00
2023-03-26T06:31:31.988Z,100.00
2023-03-26T06:33:58.465Z,100.00
2023-03-26T06:36:26.726Z,100.00
2023-03-26T06:38:53.518Z,100.00
2023-03-26T06:41:20.213Z,100.00
2023-03-26T06:43:46.757Z,100.00
2023-03-26T06:46:13.449Z,100.00
2023-03-26T06:48:42.072Z,100.00
2023-03-26T06:51:10.330Z,100.00
2023-03-26T06:53:38.543Z,100.00
2023-03-26T06:56:07.133Z,100.00
2023-03-26T06:58:37.480Z,100.00
2023-03-26T07:01:04.118Z,100.00
2023-03-26T07:03:30.712Z,100.00
2023-03-26T07:06:03.722Z,100.00
2023-03-26T07:08:31.675Z,100.00
2023-03-26T07:11:01.954Z,100.00
2023-03-26T07:13:28.558Z,100.00
2023-03-26T07:15:55.090Z,100.00
2023-03-26T07:18:21.661Z,100.00
2023-03-26T07:20:50.160Z,100.00
2023-03-26T07:23:20.460Z,100.00
2023-03-26T07:25:48.590Z,100.00
2023-03-26T07:28:35.528Z,100.00
2023-03-26T07:31:20.555Z,100.00
2023-03-26T07:34:02.426Z,100.00
2023-03-26T07:36:36.076Z,100.00
2023-03-26T07:39:09.356Z,100.00
2023-03-26T07:41:54.767Z,100.00
2023-03-26T07:44:53.144Z,100.00
2023-03-26T07:47:32.806Z,100.00
2023-03-26T07:50:01.508Z,100.00
2023-03-26T07:52:28.320Z,100.00
2023-03-26T07:54:55.615Z,100.00
2023-03-26T07:57:45.632Z,100.00
2023-03-26T08:00:22.765Z,100.00
2023-03-26T08:03:01.971Z,100.00
2023-03-26T08:05:32.958Z,100.00
2023-03-26T08:08:15.508Z,100.00
2023-03-26T08:11:02.002Z,100.00
2023-03-26T08:14:07.781Z,100.00
2023-03-26T08:16:54.727Z,100.00
2023-03-26T08:19:33.389Z,100.00
2023-03-26T08:22:11.241Z,100.00
2023-03-26T08:25:09.919Z,100.00
2023-03-26T08:27:43.366Z,100.00
2023-03-26T08:30:25.463Z,100.00
2023-03-26T08:33:00.392Z,100.00
2023-03-26T08:35:30.453Z,100.00
2023-03-26T08:37:57.006Z,100.00
2023-03-26T08:41:06.322Z,100.00
2023-03-26T08:43:55.589Z,100.00
2023-03-26T08:47:02.616Z,100.00
2023-03-26T08:49:29.774Z,100.00
2023-03-26T08:52:55.457Z,100.00
2023-03-26T08:55:43.720Z,100.00
2023-03-26T08:58:46.750Z,100.00
2023-03-26T09:01:37.354Z,100.00
2023-03-26T09:04:26.592Z,100.00
2023-03-26T09:06:59.681Z,100.00
2023-03-26T09:09:55.594Z,100.00
2023-03-26T09:12:23.745Z,100.00
2023-03-26T09:15:42.142Z,100.00
2023-03-26T09:18:41.921Z,100.00
2023-03-26T09:21:22.615Z,100.00
2023-03-26T09:24:25.495Z,100.00
2023-03-26T09:27:14.135Z,100.00
2023-03-26T09:30:02.166Z,100.00
2023-03-26T09:32:44.194Z,100.00
2023-03-26T09:35:42.369Z,96.72
2023-03-26T09:38:40.632Z,91.55
2023-03-26T09:41:17.973Z,90.76
2023-03-26T09:44:05.588Z,72.82
2023-03-26T09:46:53.780Z,69.03
2023-03-26T09:49:30.814Z,55.40
2023-03-26T09:52:08.065Z,55.38
2023-03-26T09:54:57.730Z,54.08
2023-03-26T09:57:43.098Z,49.13
2023-03-26T10:00:20.764Z,51.49
2023-03-26T10:03:22.540Z,48.39
2023-03-26T10:06:00.812Z,53.31
2023-03-26T10:08:34.161Z,53.92
2023-03-26T10:11:20.457Z,55.32
2023-03-26T10:14:00.292Z,59.36
2023-03-26T10:16:41.219Z,62.79
2023-03-26T10:19:20.163Z,64.01
2023-03-26T10:22:25.346Z,60.19
2023-03-26T10:24:58.462Z,60.16
2023-03-26T10:27:48.944Z,64.41
2023-03-26T10:30:25.517Z,58.31
2023-03-26T10:33:02.275Z,63.93
2023-03-26T10:35:52.908Z,62.92
2023-03-26T10:38:54.852Z,64.78
2023-03-26T10:41:54.631Z,62.14
2023-03-26T10:44:51.258Z,63.05
2023-03-26T10:47:36.439Z,62.65
2023-03-26T10:50:40.842Z,65.30
2023-03-26T10:53:19.540Z,66.67
2023-03-26T10:55:54.824Z,61.34
2023-03-26T10:58:26.421Z,64.25
2023-03-26T11:01:03.467Z,63.97
2023-03-26T11:03:45.353Z,55.59
2023-03-26T11:06:30.160Z,57.06
2023-03-26T11:09:16.967Z,53.61
2023-03-26T11:15:15.080Z,49.90
2023-03-26T11:17:56.397Z,51.08
2023-03-26T11:20:38.671Z,49.54
2023-03-26T11:23:32.228Z,46.80
2023-03-26T11:26:15.191Z,47.09
2023-03-26T11:29:31.098Z,46.17
2023-03-26T11:32:33.549Z,47.43
2023-03-26T11:35:00.140Z,46.61
2023-03-26T11:37:43.428Z,50.00
2023-03-26T11:40:16.580Z,50.09
2023-03-26T11:42:43.986Z,49.92
2023-03-26T11:45:17.904Z,50.47
2023-03-26T11:47:51.888Z,49.72
2023-03-26T11:50:28.859Z,47.42
2023-03-26T11:53:03.190Z,45.33
2023-03-26T11:55:32.297Z,50.67
2023-03-26T11:58:00.189Z,49.67
2023-03-26T12:00:28.588Z,50.41
2023-03-26T12:03:01.447Z,51.82
2023-03-26T12:05:36.608Z,50.78
2023-03-26T12:11:14.541Z,49.67
2023-03-26T12:13:44.546Z,52.39
2023-03-26T12:16:17.554Z,56.05
2023-03-26T12:18:46.585Z,58.41
2023-03-26T12:21:26.216Z,59.09
2023-03-26T12:24:05.329Z,59.78
2023-03-26T12:26:49.281Z,58.47
2023-03-26T12:29:19.174Z,60.03
2023-03-26T12:31:56.033Z,60.65
2023-03-26T12:34:30.899Z,60.37
2023-03-26T12:37:02.773Z,60.62
2023-03-26T12:40:10.313Z,48.89
2023-03-26T12:44:45.046Z,49.27
2023-03-26T12:45:39.682Z,49.53
2023-03-26T12:48:07.826Z,50.81
2023-03-26T12:50:42.755Z,48.84
2023-03-26T12:53:40.234Z,52.56
2023-03-26T12:56:36.471Z,50.06
2023-03-26T12:59:41.561Z,51.75
2023-03-26T13:02:36.343Z,51.39
2023-03-26T13:05:28.804Z,50.09
2023-03-26T13:08:32.761Z,49.97
2023-03-26T13:11:20.413Z,47.05
2023-03-26T13:14:33.487Z,51.86
2023-03-26T13:17:37.977Z,49.69
2023-03-26T13:20:33.066Z,52.00
2023-03-26T13:23:17.288Z,53.80
2023-03-26T13:25:53.200Z,54.67
2023-03-26T13:28:37.796Z,55.18
2023-03-26T13:31:21.945Z,54.42
2023-03-26T13:33:57.436Z,56.30
2023-03-26T13:36:52.177Z,55.10
2023-03-26T13:39:42.763Z,56.08
2023-03-26T13:42:15.487Z,56.56
2023-03-26T13:45:06.170Z,55.97
2023-03-26T13:47:41.540Z,58.01
2023-03-26T13:50:15.567Z,56.88
2023-03-26T13:53:06.467Z,56.24
2023-03-26T13:55:59.856Z,60.37
2023-03-26T13:58:45.184Z,76.98
2023-03-26T14:01:21.419Z,89.77
2023-03-26T14:04:09.077Z,100.00
2023-03-26T14:06:49.362Z,100.00
2023-03-26T14:09:23.019Z,100.00
2023-03-26T14:12:20.986Z,100.00
2023-03-26T14:15:13.873Z,100.00
2023-03-26T14:18:24.372Z,100.00
2023-03-26T14:20:56.369Z,100.00
2023-03-26T14:23:27.660Z,100.00
2023-03-26T14:26:19.254Z,100.00
2023-03-26T14:29:07.986Z,100.00
2023-03-26T14:31:54.166Z,100.00
2023-03-26T14:34:39.749Z,100.00
2023-03-26T14:37:44.588Z,100.00
2023-03-26T14:40:18.686Z,100.00
2023-03-26T14:43:09.576Z,100.00
2023-03-26T14:45:56.494Z,100.00
2023-03-26T14:49:00.037Z,100.00
2023-03-26T14:51:42.608Z,100.00
2023-03-26T14:54:12.965Z,100.00
2023-03-26T14:56:53.699Z,100.00
2023-03-26T14:59:44.339Z,100.00
2023-03-26T15:02:46.424Z,100.00
2023-03-26T15:05:37.453Z,100.00
2023-03-26T15:08:21.296Z,100.00
2023-03-26T15:11:28.621Z,100.00
2023-03-26T15:14:37.442Z,100.00
2023-03-26T15:17:34.473Z,100.00
2023-03-26T15:20:50.431Z,100.00
2023-03-26T15:23:29.150Z,100.00
2023-03-26T15:26:27.800Z,100.00
2023-03-26T15:29:35.581Z,100.00
2023-03-26T15:32:26.262Z,100.00
2023-03-26T15:35:09.709Z,100.00
2023-03-26T15:38:16.320Z,100.00
2023-03-26T15:41:01.899Z,100.00
2023-03-26T15:44:22.972Z,100.00
2023-03-26T15:47:01.798Z,100.00
2023-03-26T15:49:43.761Z,100.00
2023-03-26T15:52:24.031Z,100.00
2023-03-26T15:55:14.582Z,100.00
2023-03-26T15:57:47.548Z,100.00
2023-03-26T16:00:24.435Z,100.00
2023-03-26T16:03:19.557Z,100.00
2023-03-26T16:06:16.331Z,100.00
2023-03-26T16:09:10.502Z,100.00
2023-03-26T16:11:49.633Z,100.00
2023-03-26T16:14:24.234Z,100.00
2023-03-26T16:16:58.721Z,100.00
2023-03-26T16:19:50.464Z,100.00
2023-03-26T16:22:42.547Z,100.00
2023-03-26T16:25:29.130Z,100.00
2023-03-26T16:28:19.649Z,100.00
2023-03-26T16:31:10.644Z,100.00
2023-03-26T16:34:03.478Z,100.00
2023-03-26T16:36:35.712Z,100.00
2023-03-26T16:39:11.622Z,100.00
2023-03-26T16:41:50.268Z,100.00
2023-03-26T16:44:44.001Z,100.00
2023-03-26T16:47:38.707Z,100.00
2023-03-26T16:50:45.621Z,100.00
2023-03-26T16:53:29.539Z,100.00
2023-03-26T16:56:09.567Z,100.00
2023-03-26T16:58:59.224Z,100.00
2023-03-26T17:01:34.230Z,100.00
2023-03-26T17:04:17.284Z,100.00
2023-03-26T17:06:45.884Z,100.00
2023-03-26T17:09:34.430Z,100.00
2023-03-26T17:12:14.904Z,100.00
2023-03-26T17:15:11.027Z,100.00
2023-03-26T17:17:55.701Z,100.00
2023-03-26T17:20:25.337Z,100.00
2023-03-26T17:23:30.769Z,100.00
2023-03-26T17:26:04.041Z,100.00
2023-03-26T17:28:47.838Z,100.00
2023-03-26T17:31:31.589Z,100.00
2023-03-26T17:34:38.352Z,100.00
2023-03-26T17:37:27.951Z,100.00
2023-03-26T17:40:00.466Z,100.00
2023-03-26T17:42:37.939Z,100.00
2023-03-26T17:45:21.873Z,100.00
2023-03-26T17:47:58.778Z,100.00
2023-03-26T17:50:52.665Z,100.00
2023-03-26T17:53:26.323Z,100.00
2023-03-26T17:55:56.056Z,100.00
2023-03-26T17:58:28.181Z,100.00
2023-03-26T18:01:14.495Z,100.00
2023-03-26T18:03:49.665Z,100.00
2023-03-26T18:06:59.336Z,100.00
2023-03-26T18:09:38.004Z,100.00
2023-03-26T18:12:23.046Z,100.00
2023-03-26T18:15:12.918Z,100.00
2023-03-26T18:17:47.721Z,100.00
2023-03-26T18:20:26.600Z,100.00
2023-03-26T18:22:53.295Z,100.00
2023-03-26T18:25:29.125Z,100.00
2023-03-26T18:27:56.666Z,100.00
2023-03-26T18:30:25.958Z,100.00
2023-03-26T18:33:06.808Z,100.00
2023-03-26T18:35:46.528Z,100.00
2023-03-26T18:38:35.798Z,100.00
2023-03-26T18:41:08.086Z,100.00
2023-03-26T18:43:43.933Z,100.00
2023-03-26T18:46:14.523Z,100.00
2023-03-26T18:48:41.659Z,100.00
2023-03-26T18:51:08.868Z,100.00
2023-03-26T18:53:50.891Z,100.00
2023-03-26T18:56:49.452Z,100.00
2023-03-26T18:59:33.994Z,100.00
2023-03-26T19:02:05.032Z,100.00
2023-03-26T19:04:34.997Z,100.00
2023-03-26T19:07:02.904Z,100.00
2023-03-26T19:09:32.393Z,100.00
2023-03-26T19:12:07.302Z,100.00
2023-03-26T19:14:39.215Z,100.00
2023-03-26T19:17:07.121Z,100.00
2023-03-26T19:19:38.334Z,100.00
2023-03-26T19:22:07.220Z,100.00
2023-03-26T19:24:36.219Z,100.00
2023-03-26T19:27:03.725Z,100.00
2023-03-26T19:29:35.554Z,100.00
2023-03-26T19:32:04.980Z,100.00
2023-03-26T19:34:39.052Z,100.00
2023-03-26T19:37:26.817Z,100.00
2023-03-26T19:40:01.286Z,100.00
2023-03-26T19:42:43.221Z,100.00
2023-03-26T19:45:19.248Z,100.00
2023-03-26T19:48:03.626Z,100.00
2023-03-26T19:50:43.016Z,100.00
2023-03-26T19:53:25.593Z,100.00
2023-03-26T19:56:25.563Z,100.00
2023-03-26T19:58:52.616Z,100.00
2023-03-26T20:01:23.755Z,100.00
2023-03-26T20:03:54.569Z,100.00
2023-03-26T20:06:33.918Z,100.00
2023-03-26T20:09:13.145Z,100.00
2023-03-26T20:11:40.838Z,100.00
2023-03-26T20:14:27.479Z,100.00
2023-03-26T20:16:54.511Z,100.00
2023-03-26T20:19:21.081Z,100.00
2023-03-26T20:21:47.694Z,100.00
2023-03-26T20:24:16.177Z,100.00
2023-03-26T20:26:44.033Z,100.00
2023-03-26T20:29:11.778Z,100.00
2023-03-26T20:31:41.550Z,100.00
2023-03-26T20:34:24.486Z,100.00
2023-03-26T20:36:55.319Z,100.00
2023-03-26T20:39:25.401Z,100.00
2023-03-26T20:41:53.959Z,100.00
2023-03-26T20:44:21.237Z,100.00
2023-03-26T20:46:49.335Z,100.00
2023-03-26T20:49:25.213Z,100.00
2023-03-26T20:51:53.949Z,100.00
2023-03-26T20:54:26.353Z,100.00
2023-03-26T20:56:58.378Z,100.00
2023-03-26T20:59:27.444Z,100.00
2023-03-26T21:01:57.488Z,100.00
2023-03-26T21:04:26.114Z,100.00
2023-03-26T21:06:55.670Z,100.00
2023-03-26T21:09:34.014Z,100.00
2023-03-26T21:12:05.808Z,100.00
2023-03-26T21:14:41.925Z,100.00
2023-03-26T21:17:21.085Z,100.00
2023-03-26T21:19:50.605Z,100.00
2023-03-26T21:22:29.928Z,100.00
2023-03-26T21:25:05.610Z,100.00
2023-03-26T21:27:41.230Z,100.00
2023-03-26T21:30:18.434Z,100.00
2023-03-26T21:32:45.675Z,100.00
2023-03-26T21:35:13.703Z,100.00
2023-03-26T21:37:44.756Z,100.00
2023-03-26T21:40:16.981Z,100.00
2023-03-26T21:42:52.203Z,100.00
2023-03-26T21:45:20.028Z,100.00
2023-03-26T21:47:49.119Z,100.00
2023-03-26T21:50:20.665Z,100.00
2023-03-26T21:52:51.003Z,100.00
2023-03-26T21:55:22.053Z,100.00
2023-03-26T21:57:56.276Z,100.00
2023-03-26T22:00:30.732Z,100.00
2023-03-26T22:03:32.802Z,100.00
2023-03-26T22:06:31.221Z,100.00
2023-03-26T22:08:59.657Z,100.00
2023-03-26T22:11:26.253Z,100.00
2023-03-26T22:13:53.267Z,100.00
2023-03-26T22:16:20.034Z,100.00
2023-03-26T22:18:46.539Z,100.00
2023-03-26T22:21:14.155Z,100.00
2023-03-26T22:23:40.871Z,100.00
2023-03-26T22:26:07.375Z,100.00
2023-03-26T22:28:36.546Z,100.00
2023-03-26T22:31:10.268Z,100.00
2023-03-26T22:33:38.265Z,100.00
2023-03-26T22:36:05.092Z,100.00
2023-03-26T22:38:56.602Z,100.00
2023-03-26T22:41:23.625Z,100.00
2023-03-26T22:43:53.604Z,100.00
2023-03-26T22:46:21.437Z,100.00
2023-03-26T22:48:51.522Z,100.00
2023-03-26T22:51:18.826Z,100.00
2023-03-26T22:53:47.250Z,100.00
2023-03-26T22:56:15.364Z,100.00
2023-03-26T22:58:42.361Z,100.00
2023-03-26T23:01:13.133Z,100.00
2023-03-26T23:03:39.633Z,100.00
2023-03-26T23:06:08.605Z,100.00
2023-03-26T23:08:39.630Z,100.00
2023-03-26T23:11:20.416Z,100.00
2023-03-26T23:13:51.021Z,100.00
2023-03-26T23:16:17.796Z,100.00
2023-03-26T23:18:45.233Z,100.00
2023-03-26T23:21:20.215Z,100.00
2023-03-26T23:23:48.671Z,100.00
2023-03-26T23:26:16.326Z,100.00
2023-03-26T23:28:43.488Z,100.00
2023-03-26T23:31:12.327Z,100.00
2023-03-26T23:33:48.317Z,100.00
2023-03-26T23:36:17.691Z,100.00
2023-03-26T23:38:46.761Z,100.00
2023-03-26T23:41:17.372Z,100.00
2023-03-26T23:43:54.536Z,100.00
2023-03-26T23:46:31.022Z,100.00
2023-03-26T23:49:00.204Z,100.00
2023-03-26T23:51:27.004Z,100.00
2023-03-26T23:53:53.941Z,100.00
2023-03-26T23:56:21.086Z,100.00
2023-03-26T23:58:49.010Z,100.00
